createdAt,value
2022-09-10T00:00:44.256Z,97462.31
2022-09-10T00:04:18.233Z,97461.11
2022-09-10T00:21:57.165Z,97461.55
2022-09-10T00:25:40.565Z,97464.35
2022-09-10T00:29:16.243Z,97465.99
2022-09-10T00:46:09.204Z,97447.80
2022-09-10T00:49:48.354Z,97454.14
2022-09-10T00:53:27.266Z,97459.95
2022-09-10T00:57:07.300Z,97461.36
2022-09-10T01:00:41.726Z,97458.16
2022-09-10T01:10:50.297Z,97440.48
2022-09-10T01:14:41.457Z,97440.41
2022-09-10T01:18:30.545Z,97436.66
2022-09-10T01:22:17.423Z,97431.95
2022-09-10T01:42:55.088Z,97404.44
2022-09-10T01:46:38.934Z,97406.98
2022-09-10T01:50:25.119Z,97417.74
2022-09-10T02:08:27.264Z,97421.20
2022-09-10T02:12:03.963Z,97412.02
2022-09-10T02:15:45.168Z,97411.48
2022-09-10T02:32:37.522Z,97392.73
2022-09-10T02:36:03.001Z,97392.39
2022-09-10T02:39:37.002Z,97384.04
2022-09-10T02:43:24.606Z,97386.73
2022-09-10T02:56:52.306Z,97361.46
2022-09-10T03:00:25.773Z,97363.30
2022-09-10T03:03:59.707Z,97360.35
2022-09-10T03:07:48.282Z,97355.82
2022-09-10T03:11:24.289Z,97354.70
2022-09-10T03:14:59.394Z,97357.38
2022-09-10T03:21:58.914Z,97354.56
2022-09-10T03:25:31.789Z,97350.80
2022-09-10T03:29:04.815Z,97356.74
2022-09-10T03:32:51.325Z,97363.87
2022-09-10T03:46:13.584Z,97375.85
2022-09-10T03:49:47.854Z,97377.61
2022-09-10T04:06:44.900Z,97366.23
2022-09-10T04:10:17.891Z,97363.84
2022-09-10T04:13:51.725Z,97364.19
2022-09-10T04:27:12.904Z,97361.09
2022-09-10T04:30:41.595Z,97356.83
2022-09-10T04:34:08.367Z,97355.33
2022-09-10T04:37:40.955Z,97350.15
2022-09-10T04:41:16.062Z,97349.88
2022-09-10T04:44:51.166Z,97347.20
2022-09-10T04:48:25.864Z,97346.06
2022-09-10T05:05:31.569Z,97336.80
2022-09-10T05:09:01.686Z,97338.33
2022-09-10T05:12:32.546Z,97338.42
2022-09-10T05:29:23.414Z,97337.93
2022-09-10T05:32:56.648Z,97338.47
2022-09-10T05:36:29.445Z,97337.06
2022-09-10T05:40:03.485Z,97331.77
2022-09-10T06:00:21.925Z,97333.50
2022-09-10T06:03:54.814Z,97334.27
2022-09-10T06:07:28.705Z,97334.80
2022-09-10T06:20:50.774Z,97326.99
2022-09-10T06:24:24.855Z,97322.58
2022-09-10T06:27:57.973Z,97323.20
2022-09-10T06:31:41.056Z,97324.07
2022-09-10T06:45:04.933Z,97322.20
2022-09-10T06:48:47.976Z,97322.23
2022-09-10T06:52:21.416Z,97324.36
2022-09-10T07:05:47.542Z,97328.94
2022-09-10T07:09:26.234Z,97334.88
2022-09-10T07:13:02.529Z,97335.91
2022-09-10T07:29:53.917Z,97335.45
2022-09-10T07:33:26.874Z,97334.85
2022-09-10T07:37:05.980Z,97339.43
2022-09-10T07:40:20.829Z,97342.00
2022-09-10T07:50:17.486Z,97332.35
2022-09-10T07:53:56.443Z,97329.02
2022-09-10T07:57:32.104Z,97326.58
2022-09-10T08:01:09.451Z,97331.89
2022-09-10T08:14:34.214Z,97330.54
2022-09-10T08:18:09.196Z,97339.77
2022-09-10T08:21:42.836Z,97342.48
2022-09-10T08:35:28.230Z,97344.73
2022-09-10T08:39:08.131Z,97346.15
2022-09-10T08:42:53.792Z,97344.90
2022-09-10T08:46:31.216Z,97349.72
2022-09-10T08:50:20.766Z,97345.42
2022-09-10T09:14:42.567Z,97334.83
2022-09-10T09:18:31.648Z,97343.27
2022-09-10T09:25:48.203Z,97344.59
2022-09-10T09:29:29.624Z,97337.66
2022-09-10T09:36:48.746Z,97342.61
2022-09-10T09:40:34.107Z,97347.39
2022-09-10T09:44:32.473Z,97353.67
2022-09-10T10:01:35.115Z,97345.65
2022-09-10T10:05:23.947Z,97344.84
2022-09-10T10:09:01.857Z,97344.10
2022-09-10T10:29:36.364Z,97320.48
2022-09-10T10:33:32.157Z,97319.80
2022-09-10T10:37:31.322Z,97320.65
2022-09-10T10:44:57.915Z,97319.98
2022-09-10T10:48:47.486Z,97320.06
2022-09-10T10:52:29.578Z,97322.14
2022-09-10T10:56:20.842Z,97326.24
2022-09-10T11:00:22.884Z,97326.61
2022-09-10T11:14:21.637Z,97324.89
2022-09-10T11:18:30.266Z,97322.37
2022-09-10T11:21:33.411Z,97317.81
2022-09-10T11:24:54.006Z,97317.81
2022-09-10T11:28:33.568Z,97316.46
2022-09-10T11:32:15.836Z,97318.02
2022-09-10T11:50:01.310Z,97301.91
2022-09-10T11:53:41.130Z,97297.61
2022-09-10T11:57:23.567Z,97295.64
2022-09-10T12:01:17.814Z,97295.10
2022-09-10T12:05:25.289Z,97295.46
2022-09-10T12:15:45.935Z,97288.38
2022-09-10T12:19:28.116Z,97282.49
2022-09-10T12:38:38.704Z,97257.24
2022-09-10T12:42:30.212Z,97251.16
2022-09-10T12:46:17.639Z,97246.77
2022-09-10T13:00:26.234Z,97232.80
2022-09-10T13:04:39.674Z,97233.89
2022-09-10T13:08:34.242Z,97231.70
2022-09-10T13:12:20.016Z,97223.58
2022-09-10T13:26:50.227Z,97216.63
2022-09-10T13:30:24.864Z,97217.52
2022-09-10T13:34:33.662Z,97214.07
2022-09-10T13:38:22.804Z,97210.10
2022-09-10T13:51:53.446Z,97204.16
2022-09-10T13:55:30.068Z,97199.83
2022-09-10T13:59:06.472Z,97199.77
2022-09-10T14:02:49.380Z,97200.62
2022-09-10T14:23:05.664Z,97193.80
2022-09-10T14:26:38.495Z,97192.44
2022-09-10T14:30:30.805Z,97195.81
2022-09-10T14:34:32.472Z,97200.23
2022-09-10T14:38:09.636Z,97198.95
2022-09-10T14:41:37.564Z,97200.27
2022-09-10T14:45:04.266Z,97193.47
2022-09-10T14:48:41.156Z,97196.65
2022-09-10T14:52:08.302Z,97195.80
2022-09-10T14:55:41.816Z,97187.81
2022-09-10T14:59:31.316Z,97193.25
2022-09-10T15:03:45.683Z,97196.77
2022-09-10T15:25:10.083Z,97177.98
2022-09-10T15:28:45.755Z,97177.45
2022-09-10T15:32:18.615Z,97179.75
2022-09-10T15:35:34.486Z,97183.46
2022-09-10T15:39:36.839Z,97179.91
2022-09-10T16:03:18.034Z,97191.78
2022-09-10T16:06:50.702Z,97195.90
2022-09-10T16:10:24.184Z,97197.68
2022-09-10T16:27:13.264Z,97198.62
2022-09-10T16:30:47.741Z,97190.55
2022-09-10T16:34:22.488Z,97192.29
2022-09-10T16:37:54.255Z,97193.20
2022-09-10T16:58:16.515Z,97175.92
2022-09-10T17:01:54.125Z,97174.39
2022-09-10T17:05:28.065Z,97179.45
2022-09-10T17:09:03.217Z,97176.69
2022-09-10T17:26:09.587Z,97170.27
2022-09-10T17:29:40.687Z,97170.21
2022-09-10T17:33:11.976Z,97173.52
2022-09-10T17:50:20.996Z,97172.83
2022-09-10T17:53:55.768Z,97171.64
2022-09-10T17:58:08.609Z,97169.91
2022-09-10T18:15:54.262Z,97173.09
2022-09-10T18:19:31.559Z,97191.91
2022-09-10T18:23:15.187Z,97197.44
2022-09-10T18:41:04.388Z,97186.56
2022-09-10T18:44:41.023Z,97183.00
2022-09-10T18:48:15.520Z,97180.08
2022-09-10T18:55:16.415Z,97185.02
2022-09-10T18:58:39.992Z,97182.00
2022-09-10T19:02:14.257Z,97184.95
2022-09-10T19:15:38.405Z,97182.48
2022-09-10T19:19:10.675Z,97180.60
2022-09-10T19:22:44.408Z,97186.23
2022-09-10T19:39:28.797Z,97175.45
2022-09-10T19:43:02.975Z,97176.30
2022-09-10T19:46:39.118Z,97177.60
2022-09-10T20:03:28.404Z,97170.58
2022-09-10T20:07:02.606Z,97165.29
2022-09-10T20:10:35.656Z,97160.94
2022-09-10T20:14:13.402Z,97168.21
2022-09-10T20:17:50.785Z,97167.71
2022-09-10T20:31:13.573Z,97171.99
2022-09-10T20:34:46.406Z,97169.98
2022-09-10T20:38:21.206Z,97171.13
2022-09-10T20:51:46.184Z,97163.98
2022-09-10T20:55:19.394Z,97158.83
2022-09-10T20:58:52.261Z,97160.95
2022-09-10T21:02:26.683Z,97161.00
2022-09-10T21:19:21.195Z,97163.02
2022-09-10T21:22:53.973Z,97157.66
2022-09-10T21:26:21.253Z,97163.46
2022-09-10T21:43:32.317Z,97163.84
2022-09-10T21:47:02.661Z,97170.77
2022-09-10T21:50:32.864Z,97170.27
2022-09-10T21:54:04.353Z,97168.91
2022-09-10T22:04:08.055Z,97158.79
2022-09-10T22:07:41.423Z,97163.56
2022-09-10T22:11:17.715Z,97165.58
2022-09-10T22:24:45.304Z,97164.81
2022-09-10T22:28:18.627Z,97166.26
2022-09-10T22:31:52.234Z,97161.85
2022-09-10T22:45:19.594Z,97153.73
2022-09-10T22:48:54.837Z,97159.30
2022-09-10T22:52:28.144Z,97157.51
2022-09-10T23:02:30.428Z,97153.76
2022-09-10T23:06:08.753Z,97156.01
2022-09-10T23:09:41.935Z,97160.70
2022-09-10T23:30:25.484Z,97143.96
2022-09-10T23:34:01.326Z,97145.48
2022-09-10T23:51:08.406Z,97154.95
2022-09-10T23:54:38.686Z,97156.25
2022-09-10T23:58:08.904Z,97150.05
